PTSA/KSA METAR and TAF weather

Enter ICAO airport designator
Station Type Date Time Source
PTSA METAR 2020/07/01 02:50 UTC NOAA

PTSA 010250Z 36010KT 10SM BKN021TCU BKN300 31/25 A2975 RMK TCU S AND WEST


Station Type Date Time Source
PTSA Decoded METAR 2020/07/01 02:50 UTC NOAA

Kosrae Island, Kosrae Airport, Micronesia, Federated States of (PTSA) 05-21N 162-57E
Jun 30, 2020 - 10:50 PM EDT / 2020.07.01 0250 UTC
Wind: from the N (360 degrees) at 12 MPH (10 KT):0
Visibility: 10 mile(s):0
Sky conditions: mostly cloudy
Weather: Towering cumulus clouds observed
Temperature: 87 F (31 C)
Heat index: 97.5 F (36.4 C):1
Dew Point: 77 F (25 C)
Relative Humidity: 70%
Pressure (altimeter): 29.75 in. Hg (1007 hPa)
ob: PTSA 010250Z 36010KT 10SM BKN021TCU BKN300 31/25 A2975 RMK TCU S AND WEST
cycle: 3

Station Type Date Time Source
PTSA TAF 2020/06/30 20:57 UTC NOAA

TAF PTSA 301951Z 3020/0118 VRB05KT P6SM SCT020 SCT140
FM010000 07008KT P6SM VCSH SCT018 SCT120

Example: see airport list